Time;durP1;ratioP1;P1;durP2;ratioP2;P2;SDS_P1;SDS_P2;PMS_P1;PMS_P2;Temp;Humidity;BMP_temperature;BMP_pressure;BME280_temperature;BME280_humidity;BME280_pressure;Samples;Min_cycle;Max_cycle;Signal;HPM_P1;HPM_P2
2021/11/14 00:01:01;;;;;;;207.32;100.47;;;;;;;2.58;73.71;100525.64;2079996;85;27709;-69
2021/11/14 00:04:04;;;;;;;197.30;102.60;;;;;;;2.54;73.59;100526.14;2079725;85;29950;-68
2021/11/14 00:07:05;;;;;;;194.02;97.57;;;;;;;2.52;73.51;100531.89;2080170;85;31219;-66
2021/11/14 00:10:10;;;;;;;186.47;97.12;;;;;;;2.47;73.37;100531.09;2081367;85;34224;-69
2021/11/14 00:13:12;;;;;;;185.50;97.17;;;;;;;2.45;73.34;100529.34;2074993;85;29540;-71
2021/11/14 00:16:17;;;;;;;190.28;97.05;;;;;;;2.42;73.29;100524.98;2074730;85;27674;-66
2021/11/14 00:19:19;;;;;;;197.13;96.60;;;;;;;2.37;73.16;100524.15;2074824;85;29882;-67
2021/11/14 00:22:21;;;;;;;206.30;103.70;;;;;;;2.33;73.09;100522.42;2074402;85;31150;-72
2021/11/14 00:25:23;;;;;;;211.92;101.67;;;;;;;2.26;73.11;100518.55;2074535;85;33769;-67
2021/11/14 00:28:26;;;;;;;209.55;102.58;;;;;;;2.19;73.21;100510.25;2074304;85;29909;-65
2021/11/14 00:31:27;;;;;;;212.72;106.75;;;;;;;2.14;73.18;100520.03;2074497;85;27732;-66
2021/11/14 00:34:29;;;;;;;205.90;106.27;;;;;;;2.10;73.13;100524.45;2074480;85;29648;-66
2021/11/14 00:37:35;;;;;;;222.30;109.72;;;;;;;2.07;73.06;100528.91;2074165;85;32425;-71
2021/11/14 00:40:40;;;;;;;214.17;103.47;;;;;;;2.02;73.02;100530.28;2074616;85;33082;-69
2021/11/14 00:43:42;;;;;;;221.10;106.00;;;;;;;1.89;72.99;100535.27;2074782;85;31182;-66
2021/11/14 00:46:44;;;;;;;218.37;105.00;;;;;;;1.89;72.99;100535.27;2082960;85;27719;-67
2021/11/14 00:49:46;;;;;;;221.50;106.03;;;;;;;1.82;72.96;100536.64;2082710;85;29948;-64
2021/11/14 00:52:50;;;;;;;209.55;100.65;;;;;;;1.78;72.95;100544.61;2083018;85;30976;-65
2021/11/14 00:55:52;;;;;;;211.80;98.55;;;;;;;1.74;72.96;100554.77;2083281;85;33053;-66
2021/11/14 00:58:56;;;;;;;201.67;99.32;;;;;;;1.69;72.94;100551.28;2082573;85;30223;-65
2021/11/14 01:01:58;;;;;;;193.22;96.28;;;;;;;1.65;72.98;100549.13;2083076;85;27681;-65
2021/11/14 01:05:00;;;;;;;200.62;100.53;;;;;;;1.60;73.19;100539.03;2082644;85;29911;-65
2021/11/14 01:08:04;;;;;;;194.00;93.87;;;;;;;1.57;73.47;100548.33;2080770;85;31035;-65
2021/11/14 01:11:07;;;;;;;193.43;96.78;;;;;;;1.53;73.29;100550.55;2079997;84;33941;-66
2021/11/14 01:14:09;;;;;;;195.60;93.58;;;;;;;1.49;73.20;100550.58;2079628;85;30779;-66
2021/11/14 01:17:11;;;;;;;183.32;90.95;;;;;;;1.44;73.14;100564.70;2079599;85;27705;-66
2021/11/14 01:20:24;;;;;;;187.85;94.32;;;;;;;1.39;73.08;100559.47;2079740;85;29466;-65
2021/11/14 01:23:27;;;;;;;188.47;94.15;;;;;;;1.34;73.04;100566.08;2054650;85;31082;-65
2021/11/14 01:26:30;;;;;;;186.15;91.60;;;;;;;1.29;73.19;100562.62;2079726;85;33473;-64
2021/11/14 01:29:32;;;;;;;195.92;94.40;;;;;;;1.25;73.16;100564.84;2080340;85;30203;-63
2021/11/14 01:32:34;;;;;;;185.57;94.30;;;;;;;1.19;73.13;100559.16;2080046;85;27696;-64
2021/11/14 01:35:37;;;;;;;196.95;96.63;;;;;;;1.15;73.11;100564.48;2080084;85;29883;-63
2021/11/14 01:38:39;;;;;;;189.87;95.75;;;;;;;1.11;73.10;100566.23;2079570;85;32108;-63
2021/11/14 01:41:41;;;;;;;186.55;92.67;;;;;;;1.06;73.08;100571.55;2079873;85;32739;-63
2021/11/14 01:44:43;;;;;;;184.28;95.22;;;;;;;1.00;73.17;100579.48;2080209;85;29154;-63
2021/11/14 01:47:45;;;;;;;193.35;93.67;;;;;;;0.98;73.15;100570.73;2080072;85;27651;-63
2021/11/14 01:50:47;;;;;;;195.00;94.15;;;;;;;0.94;73.18;100578.66;2080016;85;29068;-68
2021/11/14 01:53:49;;;;;;;186.03;93.58;;;;;;;0.90;73.21;100580.44;2079494;85;32286;-63
2021/11/14 01:56:52;;;;;;;182.35;94.13;;;;;;;0.86;73.17;100583.54;2080023;85;33914;-64
2021/11/14 01:59:54;;;;;;;186.25;92.08;;;;;;;0.82;73.16;100580.48;2079616;85;30576;-64
2021/11/14 02:02:56;;;;;;;183.30;91.85;;;;;;;0.78;73.16;100580.05;2079917;85;27731;-63
2021/11/14 02:06:02;;;;;;;201.65;95.40;;;;;;;0.74;73.08;100578.34;2075633;85;28842;-64
2021/11/14 02:09:07;;;;;;;187.92;93.15;;;;;;;0.71;73.19;100584.48;2068173;86;31330;-66
2021/11/14 02:12:09;;;;;;;;;;;;;;;0.68;73.28;100587.13;2070655;86;33015;-65
2021/11/14 02:15:11;;;;;;;186.32;88.30;;;;;;;0.66;73.34;100594.19;2069297;85;29858;-64
2021/11/14 02:18:14;;;;;;;200.87;93.65;;;;;;;0.63;73.39;100590.66;2080094;85;27747;-64
2021/11/14 02:21:17;;;;;;;198.82;92.78;;;;;;;0.61;73.63;100598.59;2079663;85;28740;-63
2021/11/14 02:24:21;;;;;;;185.93;89.42;;;;;;;0.59;73.92;100597.27;2080032;85;31076;-64
2021/11/14 02:27:23;;;;;;;184.93;90.70;;;;;;;0.59;73.73;100600.36;2071137;85;33391;-64
2021/11/14 02:30:26;;;;;;;174.42;85.90;;;;;;;0.59;73.76;100610.91;2068378;85;30115;-64
2021/11/14 02:33:29;;;;;;;178.90;86.17;;;;;;;0.59;73.68;100611.77;2068398;86;27658;-65
2021/11/14 02:36:31;;;;;;;174.82;85.55;;;;;;;0.59;73.70;100597.27;2073947;85;28823;-65
2021/11/14 02:39:33;;;;;;;186.70;88.97;;;;;;;0.58;73.64;100603.42;2080206;85;32199;-64
2021/11/14 02:42:35;;;;;;;184.87;90.20;;;;;;;0.59;73.58;100604.31;2080100;85;33152;-65
2021/11/14 02:45:38;;;;;;;194.57;94.35;;;;;;;0.58;73.51;100605.19;2068943;85;29157;-66
2021/11/14 02:48:41;;;;;;;183.32;89.42;;;;;;;0.55;73.68;100603.45;2080417;85;27923;-64
2021/11/14 02:51:42;;;;;;;186.82;90.05;;;;;;;0.54;73.58;100603.44;2054803;85;29782;-67
2021/11/14 02:54:44;;;;;;;194.10;88.60;;;;;;;0.52;73.62;100604.77;2079563;85;32332;-64
2021/11/14 02:57:46;;;;;;;183.05;86.35;;;;;;;0.52;73.64;100610.05;2080243;85;32964;-65
2021/11/14 03:01:08;;;;;;;178.65;85.70;;;;;;;0.49;73.93;100614.01;2079698;85;30217;-66
2021/11/14 03:04:14;;;;;;;178.10;88.20;;;;;;;0.49;73.81;100614.46;2074759;85;27814;-64
2021/11/14 03:07:16;;;;;;;175.42;81.95;;;;;;;0.48;73.87;100623.25;2068304;86;29675;-65
2021/11/14 03:10:24;;;;;;;169.28;80.80;;;;;;;0.44;73.82;100621.04;2068041;85;31503;-71
2021/11/14 03:13:26;;;;;;;176.90;85.38;;;;;;;0.43;73.90;100625.45;2067419;85;34201;-72
2021/11/14 03:16:28;;;;;;;171.80;85.42;;;;;;;0.43;73.87;100629.41;2068405;86;30225;-71
2021/11/14 03:19:30;;;;;;;178.97;84.47;;;;;;;0.42;73.86;100625.01;2073577;85;27672;-71
2021/11/14 03:22:33;;;;;;;176.40;82.50;;;;;;;0.41;74.01;100635.11;2080173;85;29669;-71
2021/11/14 03:25:35;;;;;;;174.62;85.77;;;;;;;0.41;73.91;100646.11;2079984;85;30679;-72
2021/11/14 03:28:37;;;;;;;170.60;84.67;;;;;;;0.40;73.83;100645.67;2079713;85;34347;-72
2021/11/14 03:31:40;;;;;;;170.12;82.67;;;;;;;0.36;73.77;100647.87;2079780;85;29696;-72
2021/11/14 03:34:43;;;;;;;171.87;82.57;;;;;;;0.35;73.77;100646.11;2079933;85;27750;-71
2021/11/14 03:37:45;;;;;;;162.62;81.63;;;;;;;0.34;73.94;100645.67;2080185;85;29434;-72
2021/11/14 03:40:47;;;;;;;175.25;84.20;;;;;;;0.34;74.04;100645.67;2079721;85;32234;-71
2021/11/14 03:43:51;;;;;;;177.02;82.95;;;;;;;0.36;74.11;100646.09;2079680;85;34244;-67
2021/11/14 03:46:53;;;;;;;164.88;84.55;;;;;;;0.37;74.09;100648.31;2079740;85;30231;-68
2021/11/14 03:49:55;;;;;;;177.30;85.20;;;;;;;0.40;74.18;100651.81;2080027;85;27701;-71
2021/11/14 03:52:58;;;;;;;166.70;83.60;;;;;;;0.42;74.28;100651.37;2080071;85;29452;-70
2021/11/14 03:56:01;;;;;;;176.93;86.45;;;;;;;0.43;74.28;100647.85;2079942;85;31067;-68
2021/11/14 03:59:03;;;;;;;173.93;84.47;;;;;;;0.45;74.28;100652.69;2080242;85;33376;-66
2021/11/14 04:02:05;;;;;;;186.05;87.57;;;;;;;0.47;74.33;100652.66;2080011;85;29141;-64
2021/11/14 04:05:08;;;;;;;188.57;86.95;;;;;;;0.49;74.39;100649.59;2080042;85;27732;-65
2021/11/14 04:08:15;;;;;;;181.18;88.82;;;;;;;0.52;74.41;100656.60;2079729;85;28661;-65
2021/11/14 04:11:18;;;;;;;199.65;90.67;;;;;;;0.52;74.45;100658.81;2079637;85;31275;-65
2021/11/14 04:14:19;;;;;;;192.65;86.87;;;;;;;0.54;74.58;100654.84;2075453;85;32821;-67
2021/11/14 04:17:22;;;;;;;204.55;97.92;;;;;;;0.55;74.61;100660.55;2068649;85;30492;-64
2021/11/14 04:20:26;;;;;;;217.77;93.65;;;;;;;0.57;74.71;100667.59;2068719;85;27720;-65
2021/11/14 04:23:28;;;;;;;226.15;93.15;;;;;;;0.58;74.69;100668.00;2069575;85;29546;-64
2021/11/14 04:26:29;;;;;;;219.03;93.00;;;;;;;0.59;74.76;100676.36;2055370;85;32249;-64
2021/11/14 04:29:31;;;;;;;218.70;95.55;;;;;;;0.61;74.74;100676.38;2080181;85;33341;-64
2021/11/14 04:32:33;;;;;;;210.20;90.22;;;;;;;0.63;74.75;100677.67;2079992;85;30302;-65
2021/11/14 04:35:35;;;;;;;220.90;93.47;;;;;;;0.64;74.77;100671.52;2079186;85;27737;-64
2021/11/14 04:38:37;;;;;;;215.60;91.67;;;;;;;0.65;74.83;100678.13;2008451;88;29072;-64
2021/11/14 04:41:39;;;;;;;208.30;89.92;;;;;;;0.67;74.79;100680.74;1974779;89;32274;-64
2021/11/14 04:44:41;;;;;;;208.40;89.03;;;;;;;0.68;74.79;100675.91;2010292;88;34234;-65
2021/11/14 04:47:44;;;;;;;202.43;87.62;;;;;;;0.67;74.79;100677.65;2015049;87;29494;-64
2021/11/14 04:50:46;;;;;;;198.28;92.78;;;;;;;0.68;74.86;100683.36;2015191;87;27698;-64
2021/11/14 04:53:48;;;;;;;195.65;92.40;;;;;;;0.69;74.91;100681.16;2014990;88;29555;-65
2021/11/14 04:56:50;;;;;;;188.30;94.00;;;;;;;0.66;74.87;100678.98;2068563;85;31411;-64
2021/11/14 04:59:52;;;;;;;189.52;90.15;;;;;;;0.64;74.91;100679.42;2079775;85;33424;-65
2021/11/14 05:02:55;;;;;;;173.25;85.80;;;;;;;0.62;74.92;100677.23;2079933;85;29758;-65
2021/11/14 05:05:57;;;;;;;170.05;82.10;;;;;;;0.59;74.91;100679.45;2068700;85;27513;-66
2021/11/14 05:09:00;;;;;;;161.52;80.87;;;;;;;0.57;74.79;100682.52;2008571;88;28861;-69
2021/11/14 05:12:04;;;;;;;182.45;87.72;;;;;;;0.55;74.96;100689.55;1978477;89;32233;-68
2021/11/14 05:15:08;;;;;;;192.60;83.37;;;;;;;0.56;74.98;100689.57;2068976;86;33407;-64
2021/11/14 05:18:09;;;;;;;178.57;81.85;;;;;;;0.55;74.95;100689.13;2068933;86;30107;-65
2021/11/14 05:21:11;;;;;;;182.30;79.87;;;;;;;0.53;75.04;100700.11;2049368;85;27676;-64
2021/11/14 05:24:13;;;;;;;183.00;82.20;;;;;;;0.55;75.15;100706.69;2021444;88;28658;-63
2021/11/14 05:27:15;;;;;;;236.40;79.27;;;;;;;0.54;75.15;100712.84;1988751;89;31610;-63
2021/11/14 05:30:17;;;;;;;173.57;77.42;;;;;;;0.49;75.18;100714.63;2021283;88;34137;-62
2021/11/14 05:33:19;;;;;;;163.25;79.53;;;;;;;0.43;75.18;100724.28;2014998;88;30737;-63
2021/11/14 05:36:23;;;;;;;203.10;99.35;;;;;;;0.40;75.30;100724.28;2014844;88;27713;-63
2021/11/14 05:39:25;;;;;;;196.65;96.47;;;;;;;0.41;75.47;100723.86;2014221;88;29922;-63
2021/11/14 05:42:26;;;;;;;183.72;76.00;;;;;;;0.45;75.64;100733.08;2013951;88;31654;-63
2021/11/14 05:45:28;;;;;;;175.30;79.85;;;;;;;0.51;75.76;100729.97;1982808;89;33673;-63
2021/11/14 05:48:30;;;;;;;154.85;71.12;;;;;;;0.55;75.76;100731.73;1987410;88;29775;-64
2021/11/14 05:51:32;;;;;;;171.95;79.40;;;;;;;0.59;75.80;100732.17;2007833;88;27760;-64
2021/11/14 05:54:34;;;;;;;161.22;77.75;;;;;;;0.61;75.78;100738.33;2008009;88;29240;-64
2021/11/14 05:57:48;;;;;;;131.10;65.05;;;;;;;0.67;75.81;100744.02;2007652;88;32392;-64
2021/11/14 06:00:52;;;;;;;162.32;67.85;;;;;;;0.70;75.82;100750.16;2006638;88;33120;-64
2021/11/14 06:06:55;;;;;;;149.35;62.93;;;;;;;0.65;75.50;100765.13;2008069;88;28231;-64
2021/11/14 06:10:00;;;;;;;147.43;74.22;;;;;;;0.65;75.58;100769.09;2014418;88;29112;-65
2021/11/14 06:13:01;;;;;;;120.67;56.40;;;;;;;0.62;75.64;100772.14;2063705;85;31437;-64
2021/11/14 06:16:09;;;;;;;153.68;69.53;;;;;;;0.64;75.70;100780.94;2062472;86;33241;-65
2021/11/14 06:19:11;;;;;;;149.35;71.70;;;;;;;0.65;75.70;100780.95;2061688;86;30299;-64
2021/11/14 06:22:13;;;;;;;141.90;68.45;;;;;;;0.68;75.73;100787.52;2062858;86;27668;-69
2021/11/14 06:25:15;;;;;;;167.98;75.22;;;;;;;0.72;75.73;100799.83;2062781;86;29348;-65
2021/11/14 06:28:17;;;;;;;174.10;76.42;;;;;;;0.70;75.59;100798.08;2025511;86;32257;-66
2021/11/14 06:31:19;;;;;;;164.00;72.95;;;;;;;0.68;75.62;100811.25;1975098;89;33355;-65
2021/11/14 06:34:21;;;;;;;151.82;74.67;;;;;;;0.67;75.59;100813.90;2008993;88;30292;-64
2021/11/14 06:37:23;;;;;;;133.43;66.05;;;;;;;0.69;75.72;100825.33;2028627;86;27609;-66
2021/11/14 06:40:25;;;;;;;168.72;68.37;;;;;;;0.73;75.76;100829.27;2023463;86;29847;-67
2021/11/14 06:43:28;;;;;;;133.97;65.55;;;;;;;0.81;75.85;100831.04;2008821;87;31377;-66
2021/11/14 06:46:30;;;;;;;152.87;64.58;;;;;;;0.86;75.70;100834.53;2008514;87;33825;-66
2021/11/14 06:49:32;;;;;;;131.20;60.95;;;;;;;0.92;75.84;100835.86;2060448;86;29455;-65
2021/11/14 06:52:34;;;;;;;142.18;59.25;;;;;;;0.99;75.85;100837.62;2062868;86;27648;-66
2021/11/14 06:55:36;;;;;;;112.32;56.53;;;;;;;1.07;75.87;100840.24;2062744;86;29241;-67
2021/11/14 06:58:38;;;;;;;98.65;52.75;;;;;;;1.10;75.62;100843.30;2028119;86;32221;-66
2021/11/14 07:01:39;;;;;;;118.00;53.35;;;;;;;1.14;75.75;100847.70;2008054;88;34399;-65
2021/11/14 07:04:41;;;;;;;108.17;55.63;;;;;;;1.20;75.83;100844.61;2008591;87;29436;-65
2021/11/14 07:07:44;;;;;;;154.90;52.80;;;;;;;1.24;75.81;100850.75;2008157;88;28165;-66
2021/11/14 07:10:47;;;;;;;113.75;48.40;;;;;;;1.33;75.83;100859.95;2008446;87;29326;-65
2021/11/14 07:13:48;;;;;;;117.42;49.50;;;;;;;1.40;75.82;100858.62;2013071;87;31425;-63
2021/11/14 07:16:51;;;;;;;150.07;48.95;;;;;;;1.44;75.65;100870.95;2013629;88;33410;-64
2021/11/14 07:19:58;;;;;;;98.82;52.33;;;;;;;1.49;75.81;100866.08;2013638;87;30458;-64
2021/11/14 07:22:59;;;;;;;146.20;52.10;;;;;;;1.51;75.63;100872.66;2024562;87;27730;-64
2021/11/14 07:26:01;;;;;;;121.65;54.45;;;;;;;1.56;75.64;100876.18;2058208;85;29557;-66
2021/11/14 07:29:04;;;;;;;134.18;59.50;;;;;;;1.64;75.87;100879.69;2080154;85;31229;-66
2021/11/14 07:32:08;;;;;;;154.78;66.30;;;;;;;1.72;75.90;100879.66;2080304;85;33311;-68
2021/11/14 07:35:14;;;;;;;140.32;79.65;;;;;;;1.78;75.71;100886.68;2070156;85;30147;-64
2021/11/14 07:38:16;;;;;;;196.40;76.90;;;;;;;1.84;75.80;100880.48;2033368;87;27721;-65
2021/11/14 07:41:18;;;;;;;174.27;59.45;;;;;;;1.90;75.59;100880.02;2032892;87;29905;-64
2021/11/14 07:44:20;;;;;;;119.10;51.18;;;;;;;1.96;75.63;100883.96;2033329;87;31706;-64
2021/11/14 07:47:22;;;;;;;140.95;56.15;;;;;;;1.97;75.42;100884.83;2035358;85;34206;-64
2021/11/14 07:50:27;;;;;;;159.67;57.05;;;;;;;2.01;75.51;100884.36;2033183;87;30620;-64
2021/11/14 07:53:31;;;;;;;158.52;54.20;;;;;;;2.05;75.40;100888.75;2042217;87;27748;-64
2021/11/14 07:56:33;;;;;;;108.75;46.92;;;;;;;2.03;75.22;100889.20;2045481;87;29925;-71
2021/11/14 07:59:35;;;;;;;170.35;59.90;;;;;;;2.01;75.22;100891.86;2045375;87;32475;-69
2021/11/14 08:02:37;;;;;;;165.73;63.78;;;;;;;1.99;75.13;100889.66;2035337;85;34330;-72
2021/11/14 08:05:40;;;;;;;154.75;65.55;;;;;;;1.99;75.19;100885.70;2032743;87;30544;-71
2021/11/14 08:08:42;;;;;;;158.87;71.07;;;;;;;2.03;75.26;100890.52;1986028;89;27761;-71
2021/11/14 08:11:44;;;;;;;175.78;72.80;;;;;;;2.06;75.20;100897.12;1990640;88;29073;-70
2021/11/14 08:14:46;;;;;;;184.30;71.28;;;;;;;2.04;75.16;100899.78;1966525;90;31930;-71
2021/11/14 08:17:48;;;;;;;168.90;66.92;;;;;;;2.07;75.21;100902.38;1965621;90;34099;-65
2021/11/14 08:20:50;;;;;;;149.87;66.80;;;;;;;2.11;75.24;100904.13;1946390;91;30139;-63
2021/11/14 08:23:52;;;;;;;163.90;57.20;;;;;;;2.24;75.69;100908.02;1956167;89;27678;-63
2021/11/14 08:26:54;;;;;;;189.43;61.83;;;;;;;2.32;75.23;100910.66;1996960;88;29903;-64
2021/11/14 08:29:56;;;;;;;125.05;60.30;;;;;;;2.32;75.13;100912.84;1996924;89;30894;-63
2021/11/14 08:32:57;;;;;;;165.40;61.10;;;;;;;2.37;75.31;100912.38;1959281;89;33570;-69
2021/11/14 08:35:59;;;;;;;133.93;56.42;;;;;;;2.49;75.43;100921.98;1965473;90;29659;-69
2021/11/14 08:39:01;;;;;;;121.95;56.75;;;;;;;2.56;75.24;100931.65;1971419;90;27630;-67
2021/11/14 08:42:04;;;;;;;116.42;51.48;;;;;;;2.69;75.37;100932.88;1971254;90;28684;-67
2021/11/14 08:45:09;;;;;;;105.35;53.08;;;;;;;2.80;75.15;100941.64;1971299;90;31892;-65
2021/11/14 08:48:10;;;;;;;102.42;52.58;;;;;;;2.89;74.99;100939.38;1971300;90;33826;-65
2021/11/14 08:51:13;;;;;;;109.20;55.00;;;;;;;2.96;75.00;100952.98;1970644;90;30776;-66
2021/11/14 08:54:15;;;;;;;118.80;55.08;;;;;;;3.10;75.20;100959.50;1965282;89;27732;-64
2021/11/14 08:57:18;;;;;;;123.62;63.68;;;;;;;3.19;75.02;100958.08;1946012;91;29949;-67
2021/11/14 09:00:25;;;;;;;130.15;50.83;;;;;;;3.25;74.97;100961.12;1965232;89;31119;-65
2021/11/14 09:03:27;;;;;;;121.47;57.60;;;;;;;3.33;74.77;100967.67;1943273;91;33103;-68
2021/11/14 09:06:29;;;;;;;118.60;60.03;;;;;;;3.37;74.65;100978.68;1942842;91;29749;-65
2021/11/14 09:09:31;;;;;;;136.10;61.58;;;;;;;3.40;74.55;100981.30;1942738;90;27866;-66
2021/11/14 09:12:33;;;;;;;135.25;57.08;;;;;;;3.49;74.67;100979.02;1962460;88;30060;-67
2021/11/14 09:15:36;;;;;;;132.60;60.67;;;;;;;3.53;74.46;100983.83;2020942;88;32315;-66
2021/11/14 09:18:37;;;;;;;156.82;60.85;;;;;;;3.57;74.19;100976.30;2021023;87;33213;-65
2021/11/14 09:21:41;;;;;;;162.05;61.33;;;;;;;3.57;74.21;100987.75;1986581;88;30163;-71
2021/11/14 09:24:43;;;;;;;130.72;62.75;;;;;;;3.57;74.17;100984.24;1980989;89;27668;-65
2021/11/14 09:27:45;;;;;;;156.65;65.90;;;;;;;3.57;74.35;100989.55;1980792;89;28763;-68
2021/11/14 09:30:50;;;;;;;146.53;65.83;;;;;;;3.60;74.31;100978.45;1981511;89;31954;-66
2021/11/14 09:33:54;;;;;;;112.77;49.65;;;;;;;3.61;74.25;100986.84;1980835;89;32970;-70
2021/11/14 09:36:56;;;;;;;141.47;68.02;;;;;;;3.69;74.41;100991.20;1980755;89;30315;-69
2021/11/14 09:39:58;;;;;;;125.75;61.92;;;;;;;3.80;74.52;100994.61;1980640;89;27743;-62
2021/11/14 09:43:01;;;;;;;137.57;60.50;;;;;;;3.97;74.59;100992.23;1985103;89;29089;-64
2021/11/14 09:46:03;;;;;;;129.47;65.47;;;;;;;4.03;74.25;100989.52;1989030;89;31913;-65
2021/11/14 09:49:07;;;;;;;119.35;58.20;;;;;;;4.16;74.51;100991.55;1951563;90;33525;-64
2021/11/14 09:52:10;;;;;;;119.33;56.73;;;;;;;4.34;74.59;100995.31;1985133;89;29504;-64
2021/11/14 09:55:14;;;;;;;112.15;56.02;;;;;;;4.50;74.28;100995.11;1990240;88;27245;-64
2021/11/14 09:58:17;;;;;;;115.97;53.70;;;;;;;4.59;74.14;100992.78;1999885;88;29096;-63
2021/11/14 10:01:18;;;;;;;108.90;56.60;;;;;;;4.68;74.01;100994.00;1980399;89;31922;-62
2021/11/14 10:04:23;;;;;;;121.70;61.00;;;;;;;4.85;74.30;100999.05;1999462;88;33859;-66
2021/11/14 10:07:25;;;;;;;126.70;66.47;;;;;;;5.02;74.34;100993.51;1980821;89;29615;-67
2021/11/14 10:10:29;;;;;;;112.15;57.65;;;;;;;5.18;74.20;100994.13;2000978;89;27755;-66
2021/11/14 10:13:37;;;;;;;180.18;86.12;;;;;;;5.29;73.91;100992.63;2025057;87;33503;-69
2021/11/14 10:16:39;;;;;;;108.07;56.18;;;;;;;5.36;73.52;100995.63;2003300;88;31934;-68
2021/11/14 10:19:41;;;;;;;106.17;56.95;;;;;;;5.44;73.56;100998.15;1998689;88;33842;-65
2021/11/14 10:22:54;;;;;;;108.83;59.38;;;;;;;5.54;73.51;100994.42;1996525;89;30549;-67
2021/11/14 10:25:58;;;;;;;112.57;60.17;;;;;;;5.65;73.40;101000.88;1978874;89;28049;-66
2021/11/14 10:29:04;;;;;;;118.22;61.83;;;;;;;5.72;73.16;101001.64;2017941;87;29551;-68
2021/11/14 10:32:15;;;;;;;99.22;54.25;;;;;;;5.79;73.13;101005.95;2084372;85;32013;-66
2021/11/14 10:35:15;;;;;;;113.17;57.65;;;;;;;5.85;72.96;101007.15;2084402;84;33858;-67
2021/11/14 10:38:22;;;;;;;118.10;60.78;;;;;;;5.85;72.66;101013.80;2084122;84;30181;-69
2021/11/14 10:41:24;;;;;;;121.70;65.37;;;;;;;5.86;72.61;101010.70;2084604;85;28080;-65
2021/11/14 10:44:26;;;;;;;115.75;63.33;;;;;;;5.95;72.82;101014.98;2083547;85;28726;-64
2021/11/14 10:47:32;;;;;;;115.10;64.25;;;;;;;6.02;72.83;101013.53;2082507;85;33168;-67
2021/11/14 10:50:38;;;;;;;119.65;67.10;;;;;;;6.15;72.87;101007.96;2082953;85;33792;-66
2021/11/14 10:53:45;;;;;;;121.50;63.52;;;;;;;6.20;72.58;101003.44;2083178;85;30290;-66
2021/11/14 10:56:46;;;;;;;115.85;64.82;;;;;;;6.20;72.59;101004.30;2083155;85;27644;-67
2021/11/14 10:59:53;;;;;;;106.78;58.17;;;;;;;6.29;72.57;101009.02;2082804;85;29934;-65
2021/11/14 11:02:54;;;;;;;111.72;60.60;;;;;;;6.31;72.38;101008.08;2082782;85;31919;-63
2021/11/14 11:05:56;;;;;;;115.85;61.77;;;;;;;6.32;72.46;101003.18;2058473;85;34398;-64
2021/11/14 11:09:02;;;;;;;127.65;69.62;;;;;;;6.33;72.31;101003.60;2074329;85;30549;-63
2021/11/14 11:12:25;;;;;;;119.35;64.25;;;;;;;6.31;72.18;101002.75;2074669;85;27744;-70
2021/11/14 11:15:29;;;;;;;126.00;67.62;;;;;;;6.27;72.22;100997.53;2074333;85;28861;-72
2021/11/14 11:18:32;;;;;;;122.70;64.12;;;;;;;6.26;72.34;101003.76;2081971;85;31535;-71
2021/11/14 11:21:41;;;;;;;123.02;65.60;;;;;;;6.27;72.41;101008.17;2083285;85;32978;-69
2021/11/14 11:24:52;;;;;;;138.05;73.30;;;;;;;6.28;72.38;101003.28;2082892;85;29341;-72
2021/11/14 11:27:55;;;;;;;131.03;73.52;;;;;;;6.31;72.46;101006.75;2025855;87;27689;-73
2021/11/14 11:31:03;;;;;;;151.37;77.15;;;;;;;6.33;72.54;101002.27;2084310;85;29994;-71
2021/11/14 11:34:05;;;;;;;133.10;70.75;;;;;;;6.39;72.50;101006.59;2084561;85;31184;-66
2021/11/14 11:37:07;;;;;;;131.10;71.12;;;;;;;6.43;72.38;101002.06;2084398;85;33579;-63
2021/11/14 11:40:10;;;;;;;141.50;74.60;;;;;;;6.49;72.43;101009.93;2084318;85;30538;-64
2021/11/14 11:43:13;;;;;;;146.32;74.70;;;;;;;6.54;72.44;101012.02;2078471;85;28203;-62
2021/11/14 11:46:21;;;;;;;134.90;73.17;;;;;;;6.58;72.38;101007.53;2074427;85;29392;-65
2021/11/14 11:49:28;;;;;;;131.35;72.87;;;;;;;6.60;72.24;101012.38;2049693;85;31872;-63
2021/11/14 11:52:39;;;;;;;143.62;75.42;;;;;;;6.61;72.31;101014.98;2074549;85;33947;-64
2021/11/14 11:55:41;;;;;;;145.53;77.80;;;;;;;6.66;72.25;101014.88;2075210;85;30304;-63
2021/11/14 11:58:53;;;;;;;148.13;76.35;;;;;;;6.70;72.19;101020.56;2074581;85;27673;-63
2021/11/14 12:01:59;;;;;;;139.32;71.42;;;;;;;6.73;72.17;101012.95;2074283;85;29559;-63
2021/11/14 12:05:13;;;;;;;121.97;65.85;;;;;;;6.76;72.14;101017.78;2077449;85;31857;-64
2021/11/14 12:08:15;;;;;;;114.92;62.95;;;;;;;6.77;72.08;101015.98;2083025;85;32984;-64
2021/11/14 12:11:33;;;;;;;131.30;65.95;;;;;;;6.82;72.08;101020.76;2083171;85;29711;-62
2021/11/14 12:14:35;;;;;;;134.75;71.72;;;;;;;6.86;72.14;101021.55;2082784;85;27690;-62
2021/11/14 12:17:42;;;;;;;129.18;67.00;;;;;;;6.91;72.10;101029.00;2083078;85;29259;-63
2021/11/14 12:20:53;;;;;;;128.75;67.95;;;;;;;6.93;71.93;101017.85;2081834;85;31990;-64
2021/11/14 12:24:02;;;;;;;119.55;65.50;;;;;;;6.97;71.92;101028.84;2082689;85;33354;-68
2021/11/14 12:27:05;;;;;;;115.67;63.75;;;;;;;6.99;71.92;101027.91;2083149;85;29339;-71
2021/11/14 12:30:12;;;;;;;121.13;62.35;;;;;;;7.05;71.87;101032.22;2083236;85;27603;-71
2021/11/14 12:33:23;;;;;;;109.70;59.63;;;;;;;7.07;71.85;101030.84;2083287;85;28722;-71
2021/11/14 12:36:40;;;;;;;110.85;62.62;;;;;;;7.10;71.77;101029.00;2080507;85;30788;-66
2021/11/14 12:39:43;;;;;;;109.48;60.75;;;;;;;7.15;71.78;101028.41;2074241;85;34203;-71
2021/11/14 12:42:45;;;;;;;110.20;62.25;;;;;;;7.19;71.74;101030.57;2074313;85;30324;-71
2021/11/14 12:45:55;;;;;;;107.35;60.70;;;;;;;7.23;71.64;101036.22;2075230;85;27624;-68
2021/11/14 12:48:59;;;;;;;126.07;66.62;;;;;;;7.26;71.61;101039.30;2083378;85;29656;-72
2021/11/14 12:52:01;;;;;;;109.20;62.00;;;;;;;7.30;71.65;101046.28;2058482;85;32228;-71
2021/11/14 12:55:17;;;;;;;107.05;56.70;;;;;;;7.34;71.62;101053.30;2059414;85;34182;-72
2021/11/14 12:58:18;;;;;;;;;;;;;;;7.37;71.56;101052.33;2085420;85;29380;-74
2021/11/14 13:01:27;;;;;;;103.78;55.58;;;;;;;7.39;71.51;101057.17;2083005;85;27700;-72
2021/11/14 13:04:36;;;;;;;102.17;57.23;;;;;;;7.40;71.48;101055.82;2074627;85;28878;-72
2021/11/14 13:07:39;;;;;;;94.52;53.85;;;;;;;7.40;71.45;101055.82;2074550;85;31116;-68
2021/11/14 13:11:04;;;;;;;103.10;55.67;;;;;;;7.43;71.50;101062.42;2072879;85;34041;-71
2021/11/14 13:14:11;;;;;;;111.77;57.60;;;;;;;7.47;71.39;101072.98;2075403;85;30540;-65
2021/11/14 13:17:17;;;;;;;105.05;57.80;;;;;;;7.48;71.29;101081.41;2082807;85;27625;-64
2021/11/14 13:20:22;;;;;;;108.30;59.27;;;;;;;7.51;71.22;101078.23;2083025;85;29585;-69
2021/11/14 13:23:26;;;;;;;107.32;57.08;;;;;;;7.52;71.22;101087.98;2082997;85;31027;-65
2021/11/14 13:26:32;;;;;;;107.60;59.33;;;;;;;7.54;71.21;101090.59;2075120;85;32993;-63
2021/11/14 13:29:39;;;;;;;108.67;59.05;;;;;;;7.55;71.19;101093.22;2074754;85;29846;-65
2021/11/14 13:32:41;;;;;;;103.83;58.98;;;;;;;7.58;71.09;101094.48;2074781;85;27708;-62
2021/11/14 13:35:44;;;;;;;98.72;55.50;;;;;;;7.61;71.12;101097.55;2074225;85;29126;-69
2021/11/14 13:38:48;;;;;;;107.52;58.73;;;;;;;7.66;71.14;101098.29;2074502;85;32358;-68
2021/11/14 13:42:02;;;;;;;100.87;57.13;;;;;;;7.73;71.19;101101.23;2083016;85;32990;-64
2021/11/14 13:45:15;;;;;;;99.63;55.93;;;;;;;7.81;71.26;101105.05;2083780;85;29324;-63
2021/11/14 13:48:17;;;;;;;100.05;52.43;;;;;;;7.89;71.29;101103.05;2082052;85;28261;-63
2021/11/14 13:51:19;;;;;;;103.05;55.25;;;;;;;7.96;71.21;101106.91;2077278;85;29550;-65
2021/11/14 13:54:22;;;;;;;91.50;51.65;;;;;;;8.03;71.24;101105.81;2084458;85;30823;-73
2021/11/14 13:57:29;;;;;;;102.02;54.88;;;;;;;8.10;71.25;101114.09;2083703;85;32967;-73